createdAt,value
2023-06-06T00:02:06.056Z,100760.53
2023-06-06T00:04:33.625Z,100756.78
2023-06-06T00:07:04.692Z,100757.56
2023-06-06T00:09:32.356Z,100760.25
2023-06-06T00:11:59.947Z,100760.00
2023-06-06T00:14:32.373Z,100754.00
2023-06-06T00:17:01.355Z,100757.41
2023-06-06T00:19:29.485Z,100757.75
2023-06-06T00:21:57.074Z,100750.91
2023-06-06T00:24:25.837Z,100752.63
2023-06-06T00:26:53.310Z,100756.09
2023-06-06T00:29:20.881Z,100757.69
2023-06-06T00:31:48.385Z,100753.41
2023-06-06T00:34:16.037Z,100764.09
2023-06-06T00:36:44.477Z,100753.22
2023-06-06T00:39:11.932Z,100752.97
2023-06-06T00:41:39.403Z,100745.09
2023-06-06T00:44:06.815Z,100755.91
2023-06-06T00:46:34.429Z,100748.41
2023-06-06T00:49:02.031Z,100748.69
2023-06-06T00:51:29.593Z,100749.94
2023-06-06T00:53:58.355Z,100751.44
2023-06-06T00:56:29.583Z,100743.75
2023-06-06T00:58:58.770Z,100744.19
2023-06-06T01:01:30.068Z,100742.53
2023-06-06T01:04:00.735Z,100746.91
2023-06-06T01:06:28.372Z,100748.34
2023-06-06T01:08:56.044Z,100744.47
2023-06-06T01:11:30.402Z,100739.94
2023-06-06T01:14:02.725Z,100731.75
2023-06-06T01:16:34.780Z,100732.72
2023-06-06T01:19:03.194Z,100737.00
2023-06-06T01:21:40.984Z,100732.28
2023-06-06T01:24:09.812Z,100726.28
2023-06-06T01:26:37.438Z,100728.09
2023-06-06T01:29:04.932Z,100732.47
2023-06-06T01:31:38.748Z,100733.44
2023-06-06T01:34:20.440Z,100738.63
2023-06-06T01:37:06.988Z,100735.94
2023-06-06T01:39:36.299Z,100725.25
2023-06-06T01:42:06.734Z,100728.09
2023-06-06T01:44:36.293Z,100720.13
2023-06-06T01:47:05.918Z,100721.16
2023-06-06T01:49:34.126Z,100723.78
2023-06-06T01:52:01.642Z,100728.09
2023-06-06T01:54:35.977Z,100722.81
2023-06-06T01:57:03.876Z,100712.22
2023-06-06T01:59:31.784Z,100711.50
2023-06-06T02:02:00.574Z,100716.88
2023-06-06T02:04:29.125Z,100707.94
2023-06-06T02:06:57.263Z,100713.19
2023-06-06T02:09:25.867Z,100716.19
2023-06-06T02:11:53.344Z,100723.66
2023-06-06T02:14:22.538Z,100720.00
2023-06-06T02:16:50.173Z,100725.56
2023-06-06T02:19:17.778Z,100723.66
2023-06-06T02:21:45.225Z,100718.38
2023-06-06T02:24:12.630Z,100717.66
2023-06-06T02:26:41.943Z,100719.38
2023-06-06T02:29:11.042Z,100718.09
2023-06-06T02:31:38.897Z,100715.69
2023-06-06T02:34:08.071Z,100708.38
2023-06-06T02:36:36.210Z,100718.28
2023-06-06T02:39:04.792Z,100718.09
2023-06-06T02:41:32.342Z,100705.81
2023-06-06T02:43:59.904Z,100704.91
2023-06-06T02:46:27.701Z,100705.81
2023-06-06T02:48:55.967Z,100706.78
2023-06-06T02:51:24.511Z,100709.84
2023-06-06T02:53:52.025Z,100705.47
2023-06-06T02:56:19.697Z,100707.06
2023-06-06T02:58:48.284Z,100696.97
2023-06-06T03:01:16.205Z,100701.41
2023-06-06T03:03:44.025Z,100709.47
2023-06-06T03:06:11.541Z,100703.94
2023-06-06T03:08:44.829Z,100709.56
2023-06-06T03:11:12.812Z,100698.72
2023-06-06T03:13:40.448Z,100699.66
2023-06-06T03:16:08.662Z,100701.69
2023-06-06T03:18:40.213Z,100700.91
2023-06-06T03:21:11.996Z,100695.91
2023-06-06T03:23:44.077Z,100698.22
2023-06-06T03:26:12.304Z,100700.28
2023-06-06T03:28:41.372Z,100694.03
2023-06-06T03:31:11.920Z,100693.94
2023-06-06T03:33:48.385Z,100698.53
2023-06-06T03:36:15.953Z,100692.47
2023-06-06T03:38:44.174Z,100683.34
2023-06-06T03:41:12.521Z,100693.25
2023-06-06T03:43:45.669Z,100683.56
2023-06-06T03:46:14.868Z,100684.53
2023-06-06T03:48:43.093Z,100694.44
2023-06-06T03:51:10.968Z,100690.16
2023-06-06T03:53:38.610Z,100688.53
2023-06-06T03:56:07.866Z,100681.63
2023-06-06T03:58:35.972Z,100684.50
2023-06-06T04:01:04.083Z,100683.13
2023-06-06T04:03:37.715Z,100679.75
2023-06-06T04:06:29.996Z,100678.34
2023-06-06T04:08:59.303Z,100680.25
2023-06-06T04:11:27.319Z,100686.09
2023-06-06T04:13:55.145Z,100684.44
2023-06-06T04:16:23.055Z,100684.63
2023-06-06T04:18:53.884Z,100686.63
2023-06-06T04:21:22.520Z,100678.72
2023-06-06T04:23:50.311Z,100682.00
2023-06-06T04:26:25.783Z,100691.31
2023-06-06T04:29:00.148Z,100695.31
2023-06-06T04:31:30.528Z,100691.31
2023-06-06T04:33:58.929Z,100698.72
2023-06-06T04:36:29.222Z,100696.25
2023-06-06T04:39:02.561Z,100696.81
2023-06-06T04:41:53.328Z,100692.63
2023-06-06T04:44:21.834Z,100694.69
2023-06-06T04:46:49.893Z,100692.97
2023-06-06T04:49:18.184Z,100697.59
2023-06-06T04:51:46.108Z,100703.19
2023-06-06T04:54:15.463Z,100689.31
2023-06-06T04:56:54.011Z,100704.81
2023-06-06T04:59:23.717Z,100697.78
2023-06-06T05:01:52.572Z,100687.31
2023-06-06T05:04:20.184Z,100701.44
2023-06-06T05:06:47.950Z,100700.81
2023-06-06T05:09:15.538Z,100698.41
2023-06-06T05:11:48.045Z,100705.78
2023-06-06T05:14:19.198Z,100699.28
2023-06-06T05:16:48.414Z,100697.44
2023-06-06T05:19:17.065Z,100713.00
2023-06-06T05:21:44.665Z,100707.84
2023-06-06T05:24:12.798Z,100708.41
2023-06-06T05:26:40.400Z,100705.81
2023-06-06T05:29:07.963Z,100705.13
2023-06-06T05:31:36.718Z,100694.25
2023-06-06T05:34:04.792Z,100692.41
2023-06-06T05:36:32.364Z,100704.09
2023-06-06T05:39:01.431Z,100708.78
2023-06-06T05:41:29.045Z,100702.59
2023-06-06T05:43:56.665Z,100696.56
2023-06-06T05:46:24.355Z,100706.88
2023-06-06T05:48:51.932Z,100702.97
2023-06-06T05:51:19.418Z,100699.16
2023-06-06T05:53:47.323Z,100708.94
2023-06-06T05:56:17.382Z,100701.50
2023-06-06T05:58:54.137Z,100700.28
2023-06-06T06:01:25.486Z,100691.63
2023-06-06T06:03:55.493Z,100708.25
2023-06-06T06:06:23.465Z,100707.28
2023-06-06T06:08:51.387Z,100713.50
2023-06-06T06:11:19.816Z,100709.53
2023-06-06T06:13:47.805Z,100709.97
2023-06-06T06:16:15.316Z,100710.84
2023-06-06T06:18:42.825Z,100716.31
2023-06-06T06:21:10.670Z,100714.84
2023-06-06T06:23:38.393Z,100720.63
2023-06-06T06:26:06.160Z,100725.34
2023-06-06T06:28:33.727Z,100724.97
2023-06-06T06:31:02.138Z,100724.69
2023-06-06T06:33:30.742Z,100719.06
2023-06-06T06:35:58.205Z,100719.44
2023-06-06T06:38:26.306Z,100721.00
2023-06-06T06:40:55.114Z,100736.47
2023-06-06T06:43:22.790Z,100738.84
2023-06-06T06:46:02.624Z,100739.22
2023-06-06T06:48:30.375Z,100720.84
2023-06-06T06:50:57.925Z,100740.13
2023-06-06T06:53:26.685Z,100741.09
2023-06-06T06:55:55.369Z,100743.31
2023-06-06T06:58:35.020Z,100736.25
2023-06-06T07:01:22.025Z,100744.09
2023-06-06T07:03:50.045Z,100743.13
2023-06-06T07:06:19.360Z,100743.03
2023-06-06T07:08:46.905Z,100740.13
2023-06-06T07:11:14.891Z,100749.47
2023-06-06T07:13:42.634Z,100737.34
2023-06-06T07:16:10.420Z,100733.94
2023-06-06T07:18:37.970Z,100732.34
2023-06-06T07:21:06.165Z,100744.03
2023-06-06T07:23:34.285Z,100744.44
2023-06-06T07:26:06.515Z,100743.47
2023-06-06T07:28:34.264Z,100739.25
2023-06-06T07:31:02.062Z,100728.94
2023-06-06T07:33:29.573Z,100743.41
2023-06-06T07:35:57.111Z,100729.19
2023-06-06T07:38:24.666Z,100726.31
2023-06-06T07:40:52.107Z,100734.28
2023-06-06T07:43:19.710Z,100729.56
2023-06-06T07:45:47.396Z,100735.66
2023-06-06T07:48:14.978Z,100726.34
2023-06-06T07:50:42.814Z,100730.91
2023-06-06T07:53:12.050Z,100737.44
2023-06-06T07:55:39.677Z,100730.53
2023-06-06T07:58:11.551Z,100735.56
2023-06-06T08:00:41.866Z,100738.72
2023-06-06T08:03:10.710Z,100731.13
2023-06-06T08:05:38.464Z,100733.53
2023-06-06T08:08:07.400Z,100731.00
2023-06-06T08:10:35.056Z,100732.31
2023-06-06T08:13:02.608Z,100732.31
2023-06-06T08:15:30.014Z,100730.38
2023-06-06T08:17:57.542Z,100730.38
2023-06-06T08:20:25.030Z,100727.66
2023-06-06T08:22:52.676Z,100727.56
2023-06-06T08:25:20.189Z,100726.69
2023-06-06T08:27:47.658Z,100728.19
2023-06-06T08:30:16.288Z,100725.66
2023-06-06T08:32:43.861Z,100724.56
2023-06-06T08:35:11.485Z,100730.91
2023-06-06T08:37:38.887Z,100729.19
2023-06-06T08:40:07.240Z,100736.13
2023-06-06T08:42:41.842Z,100735.06
2023-06-06T08:45:09.992Z,100736.78
2023-06-06T08:47:38.134Z,100725.50
2023-06-06T08:50:08.490Z,100733.72
2023-06-06T08:52:36.346Z,100729.47
2023-06-06T08:55:05.865Z,100730.50
2023-06-06T08:57:34.091Z,100725.72
2023-06-06T09:00:12.274Z,100732.16
2023-06-06T09:02:44.302Z,100733.56
2023-06-06T09:05:23.483Z,100733.56
2023-06-06T09:07:54.483Z,100735.78
2023-06-06T09:10:22.196Z,100726.47
2023-06-06T09:12:50.338Z,100731.28
2023-06-06T09:15:17.808Z,100732.94
2023-06-06T09:17:47.114Z,100724.56
2023-06-06T09:20:17.081Z,100728.25
2023-06-06T09:22:49.477Z,100728.56
2023-06-06T09:25:19.094Z,100724.00
2023-06-06T09:27:47.165Z,100729.22
2023-06-06T09:30:25.503Z,100715.66
2023-06-06T09:32:54.957Z,100722.69
2023-06-06T09:35:22.670Z,100719.81
2023-06-06T09:37:50.772Z,100716.53
2023-06-06T09:40:19.949Z,100714.94
2023-06-06T09:42:48.875Z,100712.09
2023-06-06T09:45:21.264Z,100705.19
2023-06-06T09:47:50.584Z,100710.19
2023-06-06T09:50:20.476Z,100708.59
2023-06-06T09:52:52.815Z,100708.97
2023-06-06T09:55:21.467Z,100702.03
2023-06-06T09:57:55.589Z,100699.78
2023-06-06T10:00:25.017Z,100708.53
2023-06-06T10:02:54.020Z,100698.25
2023-06-06T10:05:29.461Z,100703.34
2023-06-06T10:07:57.697Z,100704.44
2023-06-06T10:10:25.884Z,100694.88
2023-06-06T10:12:56.363Z,100698.47
2023-06-06T10:15:25.102Z,100693.56
2023-06-06T10:17:52.756Z,100692.50
2023-06-06T10:20:21.794Z,100693.38
2023-06-06T10:22:49.427Z,100694.66
2023-06-06T10:25:20.095Z,100691.50
2023-06-06T10:27:56.909Z,100693.13
2023-06-06T10:30:27.646Z,100696.69
2023-06-06T10:33:19.863Z,100697.69
2023-06-06T10:35:52.246Z,100692.50
2023-06-06T10:38:19.912Z,100698.84
2023-06-06T10:40:53.085Z,100691.56
2023-06-06T10:43:36.181Z,100699.28
2023-06-06T10:46:04.355Z,100681.28
2023-06-06T10:48:54.560Z,100681.22
2023-06-06T10:51:24.962Z,100674.75
2023-06-06T10:54:14.201Z,100671.91
2023-06-06T10:56:48.720Z,100666.88
2023-06-06T10:59:17.216Z,100668.84
2023-06-06T11:01:47.804Z,100671.69
2023-06-06T11:04:29.140Z,100676.81
2023-06-06T11:07:01.935Z,100676.44
2023-06-06T11:09:34.244Z,100671.06
2023-06-06T11:12:16.962Z,100668.50
2023-06-06T11:15:07.310Z,100666.97
2023-06-06T11:17:51.015Z,100666.59
2023-06-06T11:20:23.864Z,100661.53
2023-06-06T11:23:04.937Z,100658.00
2023-06-06T11:25:34.252Z,100660.72
2023-06-06T11:28:01.989Z,100657.63
2023-06-06T11:30:37.341Z,100645.81
2023-06-06T11:33:11.161Z,100645.97
2023-06-06T11:35:41.819Z,100653.41
2023-06-06T11:38:09.467Z,100645.78
2023-06-06T11:40:37.012Z,100653.84
2023-06-06T11:43:06.387Z,100640.88
2023-06-06T11:45:33.911Z,100646.69
2023-06-06T11:50:32.075Z,100638.59
2023-06-06T11:52:59.857Z,100635.38
2023-06-06T11:55:38.219Z,100628.69
2023-06-06T11:58:06.044Z,100635.63
2023-06-06T12:00:34.490Z,100636.00
2023-06-06T12:03:03.001Z,100640.56
2023-06-06T12:05:55.673Z,100624.25
2023-06-06T12:08:23.321Z,100650.22
2023-06-06T12:10:51.140Z,100636.22
2023-06-06T12:13:34.486Z,100638.81
2023-06-06T12:16:02.032Z,100637.41
2023-06-06T12:18:29.544Z,100637.31
2023-06-06T12:21:07.641Z,100629.97
2023-06-06T12:23:35.115Z,100631.16
2023-06-06T12:26:03.726Z,100629.63
2023-06-06T12:28:31.549Z,100634.94
2023-06-06T12:30:59.250Z,100630.91
2023-06-06T12:33:44.881Z,100622.47
2023-06-06T12:36:16.928Z,100625.25
2023-06-06T12:38:46.209Z,100629.19
2023-06-06T12:41:13.780Z,100623.09
2023-06-06T12:43:41.192Z,100621.78
2023-06-06T12:46:08.739Z,100626.03
2023-06-06T12:48:36.213Z,100606.75
2023-06-06T12:51:03.832Z,100615.44
2023-06-06T12:53:31.628Z,100622.91
2023-06-06T12:55:59.124Z,100604.22
2023-06-06T12:58:28.011Z,100606.22
2023-06-06T13:00:55.496Z,100613.16
2023-06-06T13:03:23.063Z,100614.66
2023-06-06T13:05:54.637Z,100603.69
2023-06-06T13:08:33.050Z,100610.97
2023-06-06T13:11:07.991Z,100618.75
2023-06-06T13:13:35.901Z,100610.34
2023-06-06T13:16:03.971Z,100611.53
2023-06-06T13:18:31.458Z,100605.25
2023-06-06T13:21:00.629Z,100604.13
2023-06-06T13:23:28.227Z,100605.84
2023-06-06T13:25:57.154Z,100607.19
2023-06-06T13:28:25.068Z,100597.34
2023-06-06T13:30:52.932Z,100603.03
2023-06-06T13:33:21.119Z,100596.28
2023-06-06T13:35:50.020Z,100591.47
2023-06-06T13:38:20.128Z,100604.94
2023-06-06T13:40:48.179Z,100584.69
2023-06-06T13:43:17.537Z,100589.34
2023-06-06T13:45:45.685Z,100585.13
2023-06-06T13:48:13.302Z,100580.75
2023-06-06T13:50:41.344Z,100592.16
2023-06-06T13:53:08.918Z,100579.69
2023-06-06T13:55:36.440Z,100593.09
2023-06-06T13:58:04.936Z,100594.38
2023-06-06T14:00:33.558Z,100593.22
2023-06-06T14:03:02.188Z,100574.19
2023-06-06T14:05:30.946Z,100580.13
2023-06-06T14:07:58.650Z,100588.03
2023-06-06T14:10:27.885Z,100585.91
2023-06-06T14:12:55.403Z,100586.72
2023-06-06T14:15:23.000Z,100589.06
2023-06-06T14:17:50.861Z,100593.00
2023-06-06T14:20:22.760Z,100590.66
2023-06-06T14:22:50.388Z,100594.41
2023-06-06T14:25:18.878Z,100595.72
2023-06-06T14:27:46.445Z,100588.13
2023-06-06T14:30:14.211Z,100587.72
2023-06-06T14:32:42.079Z,100587.16
2023-06-06T14:35:10.713Z,100587.47
2023-06-06T14:37:38.335Z,100584.91
2023-06-06T14:40:07.335Z,100592.69
2023-06-06T14:42:35.132Z,100590.78
2023-06-06T14:45:02.850Z,100593.50
2023-06-06T14:47:32.450Z,100599.72
2023-06-06T14:50:00.160Z,100595.16
2023-06-06T14:52:27.997Z,100605.66
2023-06-06T14:54:55.485Z,100613.72
2023-06-06T14:57:23.215Z,100615.59
2023-06-06T15:02:20.048Z,100618.94
2023-06-06T15:04:47.786Z,100612.28
2023-06-06T15:07:15.477Z,100636.72
2023-06-06T15:09:43.049Z,100638.66
2023-06-06T15:12:14.189Z,100639.63
2023-06-06T15:14:42.704Z,100650.06
2023-06-06T15:17:11.134Z,100650.22
2023-06-06T15:19:42.551Z,100643.16
2023-06-06T15:22:11.729Z,100652.25
2023-06-06T15:24:39.496Z,100663.75
2023-06-06T15:27:07.476Z,100651.66
2023-06-06T15:29:47.011Z,100661.78
2023-06-06T15:32:14.789Z,100663.75
2023-06-06T15:34:42.458Z,100656.91
2023-06-06T15:37:10.418Z,100659.41
2023-06-06T15:39:42.124Z,100651.53
2023-06-06T15:42:11.790Z,100656.84
2023-06-06T15:44:39.718Z,100647.19
2023-06-06T15:47:07.474Z,100654.97
2023-06-06T15:49:35.128Z,100656.50
2023-06-06T15:52:02.648Z,100656.50
2023-06-06T15:54:30.191Z,100654.44
2023-06-06T15:56:57.792Z,100654.00
2023-06-06T15:59:26.487Z,100651.41
2023-06-06T16:01:54.451Z,100659.00
2023-06-06T16:04:24.888Z,100653.25
2023-06-06T16:06:53.328Z,100664.63
2023-06-06T16:09:21.688Z,100664.47
2023-06-06T16:11:49.266Z,100670.09
2023-06-06T16:14:16.814Z,100661.75
2023-06-06T16:16:45.459Z,100668.38
2023-06-06T16:19:13.028Z,100652.13
2023-06-06T16:21:40.683Z,100645.63
2023-06-06T16:24:08.585Z,100636.56
2023-06-06T16:26:36.852Z,100632.13
2023-06-06T16:29:04.616Z,100642.22
2023-06-06T16:31:32.948Z,100638.75
2023-06-06T16:34:00.627Z,100645.03
2023-06-06T16:36:28.154Z,100640.81
2023-06-06T16:38:56.714Z,100645.13
2023-06-06T16:41:24.762Z,100644.94
2023-06-06T16:43:52.212Z,100630.63
2023-06-06T16:46:19.700Z,100651.94
2023-06-06T16:48:47.444Z,100635.69
2023-06-06T16:51:17.455Z,100633.38
2023-06-06T16:53:45.131Z,100642.59
2023-06-06T16:56:12.695Z,100640.06
2023-06-06T16:58:40.389Z,100645.09
2023-06-06T17:01:08.037Z,100653.41
2023-06-06T17:03:35.709Z,100649.97
2023-06-06T17:06:28.528Z,100659.63
2023-06-06T17:08:56.555Z,100657.78
2023-06-06T17:11:24.353Z,100659.06
2023-06-06T17:13:51.805Z,100658.84
2023-06-06T17:16:19.308Z,100658.84
2023-06-06T17:18:46.931Z,100656.72
2023-06-06T17:21:14.586Z,100655.81
2023-06-06T17:23:42.194Z,100656.34
2023-06-06T17:26:09.837Z,100657.22
2023-06-06T17:28:37.388Z,100657.66
2023-06-06T17:31:05.057Z,100663.84
2023-06-06T17:33:33.164Z,100659.50
2023-06-06T17:36:00.701Z,100668.28
2023-06-06T17:38:28.286Z,100665.34
2023-06-06T17:40:55.865Z,100682.59
2023-06-06T17:43:23.480Z,100677.59
2023-06-06T17:45:51.033Z,100671.88
2023-06-06T17:48:18.526Z,100677.28
2023-06-06T17:50:46.103Z,100674.22
2023-06-06T17:53:13.709Z,100677.47
2023-06-06T17:55:41.411Z,100679.31
2023-06-06T17:58:08.884Z,100689.22
2023-06-06T18:00:36.536Z,100690.50
2023-06-06T18:03:04.200Z,100688.88
2023-06-06T18:05:35.083Z,100693.66
2023-06-06T18:08:11.584Z,100692.69
2023-06-06T18:10:40.106Z,100693.00
2023-06-06T18:13:08.114Z,100685.84
2023-06-06T18:15:35.774Z,100680.13
2023-06-06T18:18:04.181Z,100679.03
2023-06-06T18:20:31.795Z,100687.69
2023-06-06T18:22:59.717Z,100689.44
2023-06-06T18:25:28.403Z,100694.72
2023-06-06T18:27:56.694Z,100689.00
2023-06-06T18:30:24.378Z,100690.81
2023-06-06T18:32:52.252Z,100696.34
2023-06-06T18:35:20.057Z,100692.25
2023-06-06T18:37:47.624Z,100685.75
2023-06-06T18:40:20.891Z,100685.50
2023-06-06T18:42:49.753Z,100681.84
2023-06-06T18:45:18.108Z,100678.09
2023-06-06T18:47:46.985Z,100669.75
2023-06-06T18:50:33.304Z,100678.09
2023-06-06T18:53:00.952Z,100674.31
2023-06-06T18:55:28.520Z,100689.56
2023-06-06T18:57:56.456Z,100685.09
2023-06-06T19:00:24.099Z,100683.81
2023-06-06T19:02:51.843Z,100681.84
2023-06-06T19:05:19.590Z,100686.72
2023-06-06T19:07:47.257Z,100695.38
2023-06-06T19:10:14.839Z,100699.94
2023-06-06T19:12:48.930Z,100695.72
2023-06-06T19:15:17.604Z,100693.31
2023-06-06T19:17:46.421Z,100704.22
2023-06-06T19:20:15.210Z,100707.91
2023-06-06T19:22:42.961Z,100714.44
2023-06-06T19:25:11.605Z,100711.06
2023-06-06T19:27:39.287Z,100718.88
2023-06-06T19:30:07.491Z,100712.97
2023-06-06T19:32:35.475Z,100722.53
2023-06-06T19:35:03.463Z,100741.47
2023-06-06T19:37:32.155Z,100738.22
2023-06-06T19:39:59.889Z,100743.91
2023-06-06T19:42:28.526Z,100747.03
2023-06-06T19:44:56.779Z,100743.75
2023-06-06T19:47:26.297Z,100769.72
2023-06-06T19:49:54.085Z,100761.59
2023-06-06T19:52:21.555Z,100769.06
2023-06-06T19:54:49.968Z,100781.59
2023-06-06T19:57:17.689Z,100772.19
2023-06-06T19:59:45.306Z,100781.84
2023-06-06T20:02:12.905Z,100785.72
2023-06-06T20:04:43.565Z,100784.66
2023-06-06T20:07:11.183Z,100782.91
2023-06-06T20:09:38.676Z,100788.75
2023-06-06T20:12:06.647Z,100781.81
2023-06-06T20:14:34.251Z,100791.00
2023-06-06T20:17:02.203Z,100786.66
2023-06-06T20:19:29.815Z,100795.28
2023-06-06T20:21:58.993Z,100795.66
2023-06-06T20:24:26.591Z,100797.41
2023-06-06T20:26:54.291Z,100789.97
2023-06-06T20:29:21.929Z,100795.88
2023-06-06T20:31:49.572Z,100795.97
2023-06-06T20:34:17.398Z,100793.75
2023-06-06T20:36:45.075Z,100783.06
2023-06-06T20:39:24.322Z,100785.56
2023-06-06T20:41:52.111Z,100797.22
2023-06-06T20:44:19.642Z,100793.09
2023-06-06T20:46:47.303Z,100797.81
2023-06-06T20:49:14.879Z,100799.75
2023-06-06T20:51:42.422Z,100791.69
2023-06-06T20:54:10.919Z,100805.75
2023-06-06T20:56:38.401Z,100801.69
2023-06-06T20:59:05.929Z,100799.16
2023-06-06T21:01:33.559Z,100820.44
2023-06-06T21:04:19.618Z,100809.22
2023-06-06T21:07:03.833Z,100808.50
2023-06-06T21:09:32.603Z,100811.53
2023-06-06T21:12:00.193Z,100813.72
2023-06-06T21:14:29.233Z,100814.19
2023-06-06T21:16:58.406Z,100813.53
2023-06-06T21:19:26.127Z,100819.34
2023-06-06T21:21:53.670Z,100811.69
2023-06-06T21:24:21.125Z,100817.69
2023-06-06T21:26:48.758Z,100808.22
2023-06-06T21:29:16.358Z,100812.56
2023-06-06T21:31:44.116Z,100820.56
2023-06-06T21:34:11.814Z,100824.34
2023-06-06T21:36:39.231Z,100827.81
2023-06-06T21:39:07.468Z,100835.16
2023-06-06T21:41:34.952Z,100821.63
2023-06-06T21:44:02.398Z,100819.25
2023-06-06T21:46:30.340Z,100810.34
2023-06-06T21:48:57.906Z,100830.47
2023-06-06T21:51:25.556Z,100833.72
2023-06-06T21:53:53.029Z,100827.94
2023-06-06T21:56:20.765Z,100837.47
2023-06-06T21:58:48.260Z,100839.59
2023-06-06T22:01:16.216Z,100844.47
2023-06-06T22:03:43.799Z,100857.31
2023-06-06T22:06:11.414Z,100856.22
2023-06-06T22:08:38.856Z,100847.28
2023-06-06T22:11:06.919Z,100838.06
2023-06-06T22:13:34.503Z,100842.25
2023-06-06T22:16:02.674Z,100844.75
2023-06-06T22:18:30.142Z,100848.91
2023-06-06T22:20:57.593Z,100842.66
2023-06-06T22:23:25.875Z,100853.13
2023-06-06T22:26:10.316Z,100844.06
2023-06-06T22:28:39.322Z,100848.09
2023-06-06T22:31:06.819Z,100860.19
2023-06-06T22:33:36.649Z,100854.59
2023-06-06T22:36:04.617Z,100861.66
2023-06-06T22:38:32.151Z,100850.59
2023-06-06T22:41:00.142Z,100848.09
2023-06-06T22:43:27.712Z,100851.94
2023-06-06T22:45:55.320Z,100831.13
2023-06-06T22:48:23.167Z,100836.19
2023-06-06T22:50:50.596Z,100834.59
2023-06-06T22:53:19.211Z,100838.28
2023-06-06T22:55:47.246Z,100836.19
2023-06-06T22:58:14.881Z,100838.78
2023-06-06T23:00:42.397Z,100831.31
2023-06-06T23:03:09.985Z,100830.69
2023-06-06T23:05:37.760Z,100833.25
2023-06-06T23:08:05.257Z,100824.34
2023-06-06T23:10:32.787Z,100830.97
2023-06-06T23:13:00.375Z,100832.88
2023-06-06T23:15:28.342Z,100829.69
2023-06-06T23:17:55.979Z,100831.75
2023-06-06T23:20:23.566Z,100826.88
2023-06-06T23:22:51.096Z,100830.44
2023-06-06T23:25:18.580Z,100824.72
2023-06-06T23:27:46.135Z,100834.09
2023-06-06T23:30:15.166Z,100817.50
2023-06-06T23:32:43.522Z,100829.41
2023-06-06T23:35:11.147Z,100823.41
2023-06-06T23:37:38.841Z,100821.41
2023-06-06T23:40:07.482Z,100823.41
2023-06-06T23:42:35.105Z,100820.44
2023-06-06T23:45:02.718Z,100813.31
2023-06-06T23:47:30.357Z,100807.47
2023-06-06T23:49:57.978Z,100803.91
2023-06-06T23:52:25.727Z,100793.50
2023-06-06T23:54:53.288Z,100795.56
2023-06-06T23:57:20.825Z,100814.09
2023-06-06T23:59:48.571Z,100780.44
